Terminal Aerodrome Forecast
Issued by NWS North Platte, NE

Home | Current Version | Previous Version | Text Only | Print | Product List | Glossary On
Versions: 1 2 3 4 5 6 7 8 9 10 11 12 13
617
FTUS43 KLBF 102320
TAFLBF
TAF
KLBF 102320Z 1100/1124 30006KT P6SM SCT250
     FM110800 VRB03KT P6SM OVC015
      TEMPO 1109/1113 2SM BR OVC008
     FM111800 24006KT P6SM BKN100=

USA.gov is the U.S. government's official web portal to all federal, state and local government web resources and services.